Terminal Aerodrome Forecast
Issued by NWS

Home | Current Version | Previous Version | Text Only | Print | Product List | Glossary On
Versions: 1 2 3 4 5 6 7 8 9 10 11 12 13 14 15 16 17
067
FTUS46 KEKA 282041 AAA
TAFCEC
TAF AMD
KCEC 282041Z 2821/2918 34017G30KT P6SM SKC
     FM290500 34009G17KT P6SM SKC
     FM290800 35005KT P6SM SCT007
     FM291700 34008KT P6SM SKC=

USA.gov is the U.S. government's official web portal to all federal, state and local government web resources and services.